Terminal Aerodrome Forecast
Issued by NWS Lake Charles, LA

Home | Current Version | Previous Version | Text Only | Print | Product List | Glossary On
Versions: 1 2 3 4 5 6 7 8 9 10 11 12 13 14 15 16 17 18 19
000
FTUS44 KLCH 272100 AAA
TAFARA
TAF AMD
KARA 272148Z 2722/2818 14014G22KT 5SM -RA VCTS SCT030CB BKN050
      TEMPO 2722/2801 VRB15G25KT 2SM +TSRA BKN030CB OVC050
     FM280100 08003KT P6SM SCT100 BKN200=

USA.gov is the U.S. government's official web portal to all federal, state and local government web resources and services.